Stations météo

réclame
Mon MeteoGroup
Capo Spartivento, Italie (16469): Température de l'air & dewpoint: 09.08.2018 00:00:00 - 15.08.2018 00:00:00 (CEST)Capo Spartivento, Italie (16469): Vitesse du vent: 09.08.2018 00:00:00 - 15.08.2018 00:00:00 (CEST)Capo Spartivento, Italie (16469): Direction du vent: 09.08.2018 00:00:00 - 15.08.2018 00:00:00 (CEST)Capo Spartivento, Italie (16469): reduced air pressure: 09.08.2018 00:00:00 - 15.08.2018 00:00:00 (CEST)Capo Spartivento, Italie (16469): Quantités de précipitations: 09.08.2018 00:00:00 - 15.08.2018 00:00:00 (CEST)
Date & Time tt [°C] td [°C] ff [km/h] ff [knt] dd ppp [hPa] rr [mm]
15.08.2018 00:00:00 - - - - - - -
14.08.2018 23:00:00 28,6 23,9 11 6 S 1010,8 -
14.08.2018 22:00:00 29,3 20,1 4 2 S 1011,3 -
14.08.2018 21:00:00 29,5 17,6 16 9 NW 1010,9 -
14.08.2018 20:00:00 28,9 21,4 9 5 WNW 1010,7 0,0
14.08.2018 19:00:00 29,5 24,6 22 12 SSE 1010,6 -
14.08.2018 18:00:00 32,4 22,5 2 1 S 1009,9 -
14.08.2018 17:00:00 31,8 25,4 5 3 SE 1010,2 -
14.08.2018 16:00:00 30,7 25,8 22 12 S 1010,4 -
14.08.2018 15:00:00 30,0 25,3 26 14 S 1010,9 -
14.08.2018 14:00:00 30,9 26,2 21 11 S 1011,2 0,0
14.08.2018 13:00:00 31,2 22,8 22 12 S 1011,7 -
14.08.2018 12:00:00 31,2 18,2 24 13 S 1011,8 -
14.08.2018 11:00:00 29,8 19,2 16 9 S 1012,1 -
14.08.2018 10:00:00 30,5 17,5 15 8 S 1011,8 -
14.08.2018 09:00:00 30,5 10,5 8 4 WSW 1011,6 -
14.08.2018 08:00:00 29,0 12,0 16 9 SW 1011,6 0,0
14.08.2018 07:00:00 28,6 20,0 5 3 ESE 1012,0 -
14.08.2018 06:00:00 29,0 16,5 9 5 S 1012,0 -
14.08.2018 05:00:00 29,2 13,8 4 2 SSW 1011,4 -
14.08.2018 04:00:00 29,9 11,4 4 2 SW 1011,2 -
14.08.2018 03:00:00 29,6 12,1 4 2 SSW 1011,1 -
14.08.2018 02:00:00 29,4 13,2 4 2 W 1011,4 0,0
14.08.2018 01:00:00 29,3 15,7 2 1 NW 1011,7 -
14.08.2018 00:00:00 29,6 14,9 4 2 N 1011,8 -
13.08.2018 23:00:00 30,9 12,3 5 3 W 1011,7 -
13.08.2018 22:00:00 27,9 26,3 8 4 NE 1012,2 -
13.08.2018 21:00:00 28,3 26,3 13 7 SSW 1011,8 -
13.08.2018 20:00:00 29,1 17,6 16 9 SW 1011,5 0,0
13.08.2018 19:00:00 28,1 26,9 18 10 SSW 1011,6 -
13.08.2018 18:00:00 29,3 25,9 24 13 S 1011,8 -
13.08.2018 17:00:00 29,4 25,1 22 12 SSE 1012,3 -
13.08.2018 16:00:00 30,3 25,8 28 15 S 1012,7 -
13.08.2018 15:00:00 29,2 24,9 15 8 SE 1013,2 -
13.08.2018 14:00:00 30,2 26,2 16 9 S 1013,8 0,0
13.08.2018 13:00:00 31,3 27,0 5 3 NW 1014,0 -
13.08.2018 12:00:00 31,2 26,0 8 4 SW 1014,5 -
13.08.2018 11:00:00 30,5 22,9 13 7 NNE 1014,5 -
13.08.2018 10:00:00 30,4 21,7 11 6 NNE 1014,1 -
13.08.2018 09:00:00 29,5 21,9 9 5 NNE 1013,9 -
13.08.2018 08:00:00 28,3 19,5 8 4 N 1013,7 0,0
13.08.2018 07:00:00 27,8 19,8 9 5 NW 1013,3 -
13.08.2018 06:00:00 28,1 20,1 4 2 NW 1013,2 -
13.08.2018 05:00:00 28,0 20,5 5 3 NNW 1013,1 -
13.08.2018 04:00:00 28,4 20,4 5 3 NW 1013,2 -
13.08.2018 03:00:00 28,5 20,5 5 3 NNW 1013,5 -
13.08.2018 02:00:00 28,0 20,0 8 4 NNW 1013,9 0,0
13.08.2018 01:00:00 28,6 20,8 5 3 SSW 1014,4 -
13.08.2018 00:00:00 28,2 20,2 8 4 SSW 1014,8 -
12.08.2018 23:00:00 28,7 21,7 11 6 S 1015,0 -
12.08.2018 22:00:00 28,4 19,8 5 3 WNW 1015,1 -
12.08.2018 21:00:00 28,5 22,0 11 6 N 1014,9 -
12.08.2018 20:00:00 29,1 22,8 16 9 SSW 1014,4 0,0
12.08.2018 19:00:00 29,4 25,1 22 12 S 1014,7 -
12.08.2018 18:00:00 30,7 25,8 24 13 SSW 1014,8 -
12.08.2018 17:00:00 30,9 24,3 18 10 E 1015,3 -
12.08.2018 16:00:00 31,5 23,8 24 13 S 1015,4 -
12.08.2018 15:00:00 31,4 24,0 18 10 S 1016,0 -
12.08.2018 14:00:00 31,0 25,3 21 11 S 1016,2 0,0
12.08.2018 13:00:00 30,9 23,8 13 7 S 1016,4 -
12.08.2018 12:00:00 31,0 21,7 11 6 ESE 1016,4 -
12.08.2018 11:00:00 30,9 19,9 8 4 E 1016,6 -
12.08.2018 10:00:00 31,1 19,7 5 3 E 1016,2 -
12.08.2018 09:00:00 30,8 20,1 8 4 NE 1015,7 -
12.08.2018 08:00:00 28,5 20,2 4 2 NNW 1015,7 0,0
12.08.2018 07:00:00 28,7 18,7 2 1 W 1015,4 -
12.08.2018 06:00:00 28,6 19,5 2 1 W 1015,0 -
12.08.2018 05:00:00 28,6 19,8 4 2 WSW 1014,8 -
12.08.2018 04:00:00 28,5 20,5 4 2 NW 1014,8 -
12.08.2018 03:00:00 28,7 20,9 4 2 W 1015,1 -
12.08.2018 02:00:00 28,9 21,4 4 2 SSW 1015,5 0,0
12.08.2018 01:00:00 28,4 21,4 5 3 NW 1015,7 -
12.08.2018 00:00:00 29,0 21,5 2 1 W 1016,3 -
11.08.2018 23:00:00 30,4 22,3 8 4 WSW 1016,0 -
11.08.2018 22:00:00 29,3 20,4 2 1 NNW 1015,7 -
11.08.2018 21:00:00 29,4 20,2 5 3 S 1015,1 -
11.08.2018 20:00:00 29,8 23,0 11 6 S 1014,8 0,0
11.08.2018 19:00:00 31,0 21,4 8 4 S 1015,0 -
11.08.2018 18:00:00 31,5 22,2 5 3 ESE 1015,3 -
11.08.2018 17:00:00 31,1 21,8 13 7 S 1015,7 -
11.08.2018 16:00:00 32,3 21,2 11 6 NNE 1015,7 -
11.08.2018 15:00:00 32,2 23,4 16 9 S 1016,0 -
11.08.2018 14:00:00 31,6 20,8 21 11 S 1016,3 0,0
11.08.2018 13:00:00 31,3 20,9 15 8 S 1016,9 -
11.08.2018 12:00:00 30,9 22,5 13 7 SE 1017,1 -
11.08.2018 11:00:00 30,3 19,6 11 6 SSE 1017,1 -
11.08.2018 10:00:00 29,7 16,8 11 6 S 1017,0 -
11.08.2018 09:00:00 29,0 19,0 11 6 S 1016,8 -
11.08.2018 08:00:00 28,9 17,1 8 4 S 1016,7 0,0
11.08.2018 07:00:00 28,7 15,5 4 2 SSW 1016,4 -
11.08.2018 06:00:00 28,8 14,9 4 2 NNW 1016,0 -
11.08.2018 05:00:00 28,7 15,5 8 4 NW 1016,1 -
11.08.2018 04:00:00 28,9 16,7 9 5 NW 1016,2 -
11.08.2018 03:00:00 28,0 18,9 9 5 NNW 1016,6 -
11.08.2018 02:00:00 28,4 21,6 5 3 SW 1017,1 0,0
11.08.2018 01:00:00 28,4 21,1 5 3 SSE 1017,2 -
11.08.2018 00:00:00 28,5 22,2 5 3 E 1017,4 -
10.08.2018 23:00:00 29,2 21,9 4 2 SW 1017,4 -
10.08.2018 22:00:00 28,4 22,1 8 4 SSW 1017,5 -
10.08.2018 21:00:00 28,7 22,6 5 3 SE 1017,3 -
10.08.2018 20:00:00 29,9 22,8 4 2 S 1016,7 0,0
10.08.2018 19:00:00 30,4 21,7 5 3 SE 1016,8 -
10.08.2018 18:00:00 31,8 23,3 5 3 SSE 1016,8 -
10.08.2018 17:00:00 31,7 23,2 8 4 SSE 1017,0 -
10.08.2018 16:00:00 31,6 21,7 15 8 S 1017,2 -
10.08.2018 15:00:00 31,6 21,4 16 9 S 1017,4 -
10.08.2018 14:00:00 31,4 20,6 11 6 S 1017,5 0,0
10.08.2018 13:00:00 31,8 25,1 11 6 N 1017,7 -
10.08.2018 12:00:00 30,6 22,7 15 8 NNE 1017,5 -
10.08.2018 11:00:00 31,3 19,9 9 5 NE 1017,6 -
10.08.2018 10:00:00 29,8 17,9 4 2 ESE 1017,5 -
10.08.2018 09:00:00 29,1 16,3 5 3 S 1017,3 -
10.08.2018 08:00:00 29,0 15,8 4 2 S 1016,8 0,0
10.08.2018 07:00:00 28,2 15,1 4 2 SSW 1016,3 -
10.08.2018 06:00:00 28,2 15,1 9 5 NW 1015,7 -
10.08.2018 05:00:00 28,1 14,3 8 4 WNW 1015,6 -
10.08.2018 04:00:00 28,3 13,7 8 4 WNW 1015,7 -
10.08.2018 03:00:00 28,5 15,0 9 5 WNW 1015,8 -
10.08.2018 02:00:00 30,8 17,8 13 7 W 1015,7 0,0
10.08.2018 01:00:00 28,1 23,2 9 5 SSW 1015,9 -
10.08.2018 00:00:00 27,8 21,5 8 4 SW 1015,7 -
09.08.2018 23:00:00 27,6 23,1 9 5 NW 1015,6 -
09.08.2018 22:00:00 27,8 23,1 9 5 SSW 1015,6 -
09.08.2018 21:00:00 28,1 23,0 11 6 ENE 1015,2 -
09.08.2018 20:00:00 28,8 24,1 22 12 S 1014,9 0,0
09.08.2018 19:00:00 29,8 23,2 16 9 S 1014,7 -
09.08.2018 18:00:00 30,0 24,8 21 11 S 1014,6 -
09.08.2018 17:00:00 30,6 21,6 21 11 N 1014,7 -
09.08.2018 16:00:00 31,2 19,8 15 8 S 1014,8 -
09.08.2018 15:00:00 31,8 21,3 13 7 S 1015,1 -
09.08.2018 14:00:00 31,8 23,3 5 3 ESE 1015,4 0,0
09.08.2018 13:00:00 31,7 22,4 5 3 S 1015,6 -
09.08.2018 12:00:00 30,3 22,2 5 3 S 1015,5 -
09.08.2018 11:00:00 30,1 25,4 4 2 ESE 1015,4 -
09.08.2018 10:00:00 29,6 24,4 5 3 ESE 1015,0 -
09.08.2018 09:00:00 28,0 23,8 8 4 S 1015,4 -
09.08.2018 08:00:00 27,9 22,8 4 2 S 1015,3 0,0
09.08.2018 07:00:00 27,2 20,2 5 3 SSW 1014,7 -
09.08.2018 06:00:00 27,3 20,3 2 1 SSW 1014,3 -
09.08.2018 05:00:00 27,0 22,3 8 4 SW 1014,0 -
09.08.2018 04:00:00 27,6 22,0 4 2 SSW 1013,9 -
09.08.2018 03:00:00 27,4 22,5 4 2 SSW 1013,7 -
09.08.2018 02:00:00 27,6 22,5 4 2 S 1013,9 0,0
09.08.2018 01:00:00 27,5 22,4 5 3 SW 1014,2 -
09.08.2018 00:00:00 27,6 23,6 4 2 SSW 1014,4 -

tt = Température de l'air
td = dewpoint
ff = Vitesse du vent
dd = Direction du vent
ppp = reduced air pressure
rr = Quantités de précipitations

stations d'obs. à proximité